sensor_id;sensor_type;location;lat;lon;timestamp;P1;durP1;ratioP1;P2;durP2;ratioP2
27539;SDS011;15906;52.046;4.724;2023-05-07T00:00:23;34.40;;;23.92;;
27539;SDS011;15906;52.046;4.724;2023-05-07T00:02:49;32.03;;;22.52;;
27539;SDS011;15906;52.046;4.724;2023-05-07T00:05:14;37.45;;;24.02;;
27539;SDS011;15906;52.046;4.724;2023-05-07T00:07:40;33.58;;;23.75;;
27539;SDS011;15906;52.046;4.724;2023-05-07T00:10:06;37.97;;;25.42;;
27539;SDS011;15906;52.046;4.724;2023-05-07T00:12:32;36.92;;;24.08;;
27539;SDS011;15906;52.046;4.724;2023-05-07T00:15:01;34.83;;;22.30;;
27539;SDS011;15906;52.046;4.724;2023-05-07T00:17:28;37.25;;;24.60;;
27539;SDS011;15906;52.046;4.724;2023-05-07T00:19:54;31.70;;;21.83;;
27539;SDS011;15906;52.046;4.724;2023-05-07T00:22:20;35.13;;;24.00;;
27539;SDS011;15906;52.046;4.724;2023-05-07T00:24:46;37.08;;;24.25;;
27539;SDS011;15906;52.046;4.724;2023-05-07T00:27:11;31.58;;;22.00;;
27539;SDS011;15906;52.046;4.724;2023-05-07T00:29:37;31.15;;;23.75;;
27539;SDS011;15906;52.046;4.724;2023-05-07T00:32:02;36.30;;;23.55;;
27539;SDS011;15906;52.046;4.724;2023-05-07T00:34:28;38.47;;;26.23;;
27539;SDS011;15906;52.046;4.724;2023-05-07T00:36:54;38.22;;;25.33;;
27539;SDS011;15906;52.046;4.724;2023-05-07T00:39:20;37.53;;;26.35;;
27539;SDS011;15906;52.046;4.724;2023-05-07T00:41:45;40.40;;;28.05;;
27539;SDS011;15906;52.046;4.724;2023-05-07T00:44:11;39.85;;;27.73;;
27539;SDS011;15906;52.046;4.724;2023-05-07T00:46:36;38.70;;;28.02;;
27539;SDS011;15906;52.046;4.724;2023-05-07T00:49:02;38.42;;;27.20;;
27539;SDS011;15906;52.046;4.724;2023-05-07T00:51:29;38.97;;;27.55;;
27539;SDS011;15906;52.046;4.724;2023-05-07T00:53:55;37.85;;;26.08;;
27539;SDS011;15906;52.046;4.724;2023-05-07T00:56:21;41.80;;;28.40;;
27539;SDS011;15906;52.046;4.724;2023-05-07T00:58:47;40.38;;;28.38;;
27539;SDS011;15906;52.046;4.724;2023-05-07T01:01:14;43.35;;;30.15;;
27539;SDS011;15906;52.046;4.724;2023-05-07T01:03:41;43.60;;;28.88;;
27539;SDS011;15906;52.046;4.724;2023-05-07T01:06:07;47.30;;;31.27;;
27539;SDS011;15906;52.046;4.724;2023-05-07T01:08:34;41.92;;;30.02;;
27539;SDS011;15906;52.046;4.724;2023-05-07T01:11:01;41.40;;;30.40;;
27539;SDS011;15906;52.046;4.724;2023-05-07T01:13:27;40.88;;;29.90;;
27539;SDS011;15906;52.046;4.724;2023-05-07T01:15:53;37.50;;;28.17;;
27539;SDS011;15906;52.046;4.724;2023-05-07T01:18:19;45.92;;;31.70;;
27539;SDS011;15906;52.046;4.724;2023-05-07T01:20:45;41.33;;;29.98;;
27539;SDS011;15906;52.046;4.724;2023-05-07T01:23:10;42.38;;;30.88;;
27539;SDS011;15906;52.046;4.724;2023-05-07T01:25:36;42.78;;;30.23;;
27539;SDS011;15906;52.046;4.724;2023-05-07T01:28:02;40.33;;;29.50;;
27539;SDS011;15906;52.046;4.724;2023-05-07T01:30:28;39.95;;;30.17;;
27539;SDS011;15906;52.046;4.724;2023-05-07T01:33:02;45.28;;;30.52;;
27539;SDS011;15906;52.046;4.724;2023-05-07T01:35:37;42.58;;;29.65;;
27539;SDS011;15906;52.046;4.724;2023-05-07T01:38:06;43.42;;;30.85;;
27539;SDS011;15906;52.046;4.724;2023-05-07T01:40:33;42.60;;;29.45;;
27539;SDS011;15906;52.046;4.724;2023-05-07T01:42:59;39.17;;;30.83;;
27539;SDS011;15906;52.046;4.724;2023-05-07T01:45:29;44.95;;;31.38;;
27539;SDS011;15906;52.046;4.724;2023-05-07T01:47:56;40.60;;;29.60;;
27539;SDS011;15906;52.046;4.724;2023-05-07T01:50:23;44.13;;;30.98;;
27539;SDS011;15906;52.046;4.724;2023-05-07T01:52:51;38.90;;;29.40;;
27539;SDS011;15906;52.046;4.724;2023-05-07T01:55:17;39.20;;;30.55;;
27539;SDS011;15906;52.046;4.724;2023-05-07T01:57:42;39.03;;;30.67;;
27539;SDS011;15906;52.046;4.724;2023-05-07T02:00:08;38.95;;;28.45;;
27539;SDS011;15906;52.046;4.724;2023-05-07T02:02:34;37.45;;;29.90;;
27539;SDS011;15906;52.046;4.724;2023-05-07T02:05:00;38.35;;;29.55;;
27539;SDS011;15906;52.046;4.724;2023-05-07T02:07:27;35.72;;;26.48;;
27539;SDS011;15906;52.046;4.724;2023-05-07T02:09:53;36.30;;;27.05;;
27539;SDS011;15906;52.046;4.724;2023-05-07T02:12:20;35.03;;;27.05;;
27539;SDS011;15906;52.046;4.724;2023-05-07T02:14:46;32.40;;;27.10;;
27539;SDS011;15906;52.046;4.724;2023-05-07T02:17:11;36.42;;;26.90;;
27539;SDS011;15906;52.046;4.724;2023-05-07T02:19:37;32.53;;;26.02;;
27539;SDS011;15906;52.046;4.724;2023-05-07T02:22:02;34.97;;;26.25;;
27539;SDS011;15906;52.046;4.724;2023-05-07T02:24:28;32.97;;;26.40;;
27539;SDS011;15906;52.046;4.724;2023-05-07T02:26:53;31.90;;;25.10;;
27539;SDS011;15906;52.046;4.724;2023-05-07T02:29:19;29.52;;;24.13;;
27539;SDS011;15906;52.046;4.724;2023-05-07T02:31:44;29.55;;;24.60;;
27539;SDS011;15906;52.046;4.724;2023-05-07T02:34:10;27.92;;;23.90;;
27539;SDS011;15906;52.046;4.724;2023-05-07T02:36:35;28.33;;;23.63;;
27539;SDS011;15906;52.046;4.724;2023-05-07T02:39:01;32.25;;;24.45;;
27539;SDS011;15906;52.046;4.724;2023-05-07T02:41:28;29.08;;;25.27;;
27539;SDS011;15906;52.046;4.724;2023-05-07T02:43:53;26.98;;;23.13;;
27539;SDS011;15906;52.046;4.724;2023-05-07T02:46:19;25.45;;;22.75;;
27539;SDS011;15906;52.046;4.724;2023-05-07T02:48:44;28.58;;;22.92;;
27539;SDS011;15906;52.046;4.724;2023-05-07T02:51:10;27.77;;;22.85;;
27539;SDS011;15906;52.046;4.724;2023-05-07T02:53:36;24.95;;;21.40;;
27539;SDS011;15906;52.046;4.724;2023-05-07T02:56:01;28.80;;;22.98;;
27539;SDS011;15906;52.046;4.724;2023-05-07T02:58:27;23.92;;;21.05;;
27539;SDS011;15906;52.046;4.724;2023-05-07T03:00:53;26.60;;;21.52;;
27539;SDS011;15906;52.046;4.724;2023-05-07T03:03:22;29.80;;;22.27;;
27539;SDS011;15906;52.046;4.724;2023-05-07T03:05:48;26.80;;;21.55;;
27539;SDS011;15906;52.046;4.724;2023-05-07T03:08:13;25.73;;;21.25;;
27539;SDS011;15906;52.046;4.724;2023-05-07T03:10:39;28.77;;;21.95;;
27539;SDS011;15906;52.046;4.724;2023-05-07T03:13:05;28.65;;;21.98;;
27539;SDS011;15906;52.046;4.724;2023-05-07T03:15:30;25.10;;;21.60;;
27539;SDS011;15906;52.046;4.724;2023-05-07T03:17:56;25.17;;;21.73;;
27539;SDS011;15906;52.046;4.724;2023-05-07T03:20:22;27.48;;;21.15;;
27539;SDS011;15906;52.046;4.724;2023-05-07T03:22:47;22.85;;;19.77;;
27539;SDS011;15906;52.046;4.724;2023-05-07T03:25:13;23.20;;;18.83;;
27539;SDS011;15906;52.046;4.724;2023-05-07T03:27:39;22.73;;;19.70;;
27539;SDS011;15906;52.046;4.724;2023-05-07T03:30:07;25.33;;;20.27;;
27539;SDS011;15906;52.046;4.724;2023-05-07T03:32:33;27.42;;;21.35;;
27539;SDS011;15906;52.046;4.724;2023-05-07T03:35:00;24.90;;;21.08;;
27539;SDS011;15906;52.046;4.724;2023-05-07T03:37:26;25.02;;;20.15;;
27539;SDS011;15906;52.046;4.724;2023-05-07T03:39:51;25.33;;;19.80;;
27539;SDS011;15906;52.046;4.724;2023-05-07T03:42:17;23.75;;;19.60;;
27539;SDS011;15906;52.046;4.724;2023-05-07T03:44:42;23.50;;;20.27;;
27539;SDS011;15906;52.046;4.724;2023-05-07T03:47:08;23.58;;;20.60;;
27539;SDS011;15906;52.046;4.724;2023-05-07T03:49:35;22.58;;;19.80;;
27539;SDS011;15906;52.046;4.724;2023-05-07T03:52:01;24.27;;;19.75;;
27539;SDS011;15906;52.046;4.724;2023-05-07T03:54:26;24.00;;;19.08;;
27539;SDS011;15906;52.046;4.724;2023-05-07T03:56:52;22.80;;;17.88;;
27539;SDS011;15906;52.046;4.724;2023-05-07T03:59:17;19.85;;;17.67;;
27539;SDS011;15906;52.046;4.724;2023-05-07T04:01:43;22.50;;;19.00;;
27539;SDS011;15906;52.046;4.724;2023-05-07T04:04:08;20.17;;;17.92;;
27539;SDS011;15906;52.046;4.724;2023-05-07T04:06:34;19.38;;;16.88;;
27539;SDS011;15906;52.046;4.724;2023-05-07T04:08:59;24.58;;;18.10;;
27539;SDS011;15906;52.046;4.724;2023-05-07T04:11:25;22.30;;;18.27;;
27539;SDS011;15906;52.046;4.724;2023-05-07T04:13:51;22.65;;;17.58;;
27539;SDS011;15906;52.046;4.724;2023-05-07T04:16:16;21.83;;;17.98;;
27539;SDS011;15906;52.046;4.724;2023-05-07T04:18:42;22.70;;;19.00;;
27539;SDS011;15906;52.046;4.724;2023-05-07T04:21:15;21.88;;;18.13;;
27539;SDS011;15906;52.046;4.724;2023-05-07T04:23:41;23.00;;;18.98;;
27539;SDS011;15906;52.046;4.724;2023-05-07T04:26:06;23.23;;;17.95;;
27539;SDS011;15906;52.046;4.724;2023-05-07T04:28:32;24.40;;;17.90;;
27539;SDS011;15906;52.046;4.724;2023-05-07T04:30:58;20.98;;;18.10;;
27539;SDS011;15906;52.046;4.724;2023-05-07T04:33:24;24.17;;;18.65;;
27539;SDS011;15906;52.046;4.724;2023-05-07T04:35:50;23.20;;;18.73;;
27539;SDS011;15906;52.046;4.724;2023-05-07T04:38:15;23.52;;;18.25;;
27539;SDS011;15906;52.046;4.724;2023-05-07T04:40:41;23.63;;;20.17;;
27539;SDS011;15906;52.046;4.724;2023-05-07T04:43:07;26.30;;;18.77;;
27539;SDS011;15906;52.046;4.724;2023-05-07T04:45:34;24.25;;;19.15;;
27539;SDS011;15906;52.046;4.724;2023-05-07T04:48:00;23.38;;;18.75;;
27539;SDS011;15906;52.046;4.724;2023-05-07T04:50:26;28.40;;;19.48;;
27539;SDS011;15906;52.046;4.724;2023-05-07T04:52:51;24.92;;;19.38;;
27539;SDS011;15906;52.046;4.724;2023-05-07T04:55:17;23.40;;;19.45;;
27539;SDS011;15906;52.046;4.724;2023-05-07T04:57:43;23.23;;;19.17;;
27539;SDS011;15906;52.046;4.724;2023-05-07T05:00:08;24.77;;;18.67;;
27539;SDS011;15906;52.046;4.724;2023-05-07T05:02:35;25.92;;;18.48;;
27539;SDS011;15906;52.046;4.724;2023-05-07T05:05:00;24.42;;;20.52;;
27539;SDS011;15906;52.046;4.724;2023-05-07T05:07:27;25.75;;;19.45;;
27539;SDS011;15906;52.046;4.724;2023-05-07T05:09:53;26.23;;;20.30;;
27539;SDS011;15906;52.046;4.724;2023-05-07T05:12:19;26.02;;;20.45;;
27539;SDS011;15906;52.046;4.724;2023-05-07T05:14:45;24.55;;;20.10;;
27539;SDS011;15906;52.046;4.724;2023-05-07T05:17:10;30.60;;;20.20;;
27539;SDS011;15906;52.046;4.724;2023-05-07T05:19:36;28.13;;;21.02;;
27539;SDS011;15906;52.046;4.724;2023-05-07T05:22:01;26.75;;;20.88;;
27539;SDS011;15906;52.046;4.724;2023-05-07T05:24:28;29.02;;;20.92;;
27539;SDS011;15906;52.046;4.724;2023-05-07T05:26:55;30.23;;;23.42;;
27539;SDS011;15906;52.046;4.724;2023-05-07T05:29:20;26.05;;;22.83;;
27539;SDS011;15906;52.046;4.724;2023-05-07T05:31:46;25.50;;;21.15;;
27539;SDS011;15906;52.046;4.724;2023-05-07T05:34:12;32.80;;;24.48;;
27539;SDS011;15906;52.046;4.724;2023-05-07T05:36:37;28.75;;;21.58;;
27539;SDS011;15906;52.046;4.724;2023-05-07T05:39:03;31.75;;;24.42;;
27539;SDS011;15906;52.046;4.724;2023-05-07T05:41:29;32.30;;;24.45;;
27539;SDS011;15906;52.046;4.724;2023-05-07T05:43:55;32.28;;;25.60;;
27539;SDS011;15906;52.046;4.724;2023-05-07T05:46:20;32.38;;;24.35;;
27539;SDS011;15906;52.046;4.724;2023-05-07T05:48:46;30.35;;;23.75;;
27539;SDS011;15906;52.046;4.724;2023-05-07T05:51:12;31.95;;;24.70;;
27539;SDS011;15906;52.046;4.724;2023-05-07T05:53:37;32.92;;;26.38;;
27539;SDS011;15906;52.046;4.724;2023-05-07T05:56:03;36.08;;;26.30;;
27539;SDS011;15906;52.046;4.724;2023-05-07T05:58:29;33.03;;;28.45;;
27539;SDS011;15906;52.046;4.724;2023-05-07T06:00:55;35.13;;;27.08;;
27539;SDS011;15906;52.046;4.724;2023-05-07T06:03:21;39.35;;;28.75;;
27539;SDS011;15906;52.046;4.724;2023-05-07T06:05:47;36.95;;;28.10;;
27539;SDS011;15906;52.046;4.724;2023-05-07T06:08:12;39.90;;;28.70;;
27539;SDS011;15906;52.046;4.724;2023-05-07T06:10:38;37.38;;;28.67;;
27539;SDS011;15906;52.046;4.724;2023-05-07T06:13:04;37.97;;;29.52;;
27539;SDS011;15906;52.046;4.724;2023-05-07T06:15:30;35.53;;;29.88;;
27539;SDS011;15906;52.046;4.724;2023-05-07T06:17:55;37.90;;;29.45;;
27539;SDS011;15906;52.046;4.724;2023-05-07T06:20:22;39.70;;;31.33;;
27539;SDS011;15906;52.046;4.724;2023-05-07T06:22:48;41.92;;;31.50;;
27539;SDS011;15906;52.046;4.724;2023-05-07T06:25:13;45.38;;;32.30;;
27539;SDS011;15906;52.046;4.724;2023-05-07T06:27:39;40.25;;;31.60;;
27539;SDS011;15906;52.046;4.724;2023-05-07T06:30:05;42.05;;;31.95;;
27539;SDS011;15906;52.046;4.724;2023-05-07T06:32:31;38.97;;;31.33;;
27539;SDS011;15906;52.046;4.724;2023-05-07T06:34:57;41.10;;;31.73;;
27539;SDS011;15906;52.046;4.724;2023-05-07T06:37:22;43.50;;;32.45;;
27539;SDS011;15906;52.046;4.724;2023-05-07T06:39:48;42.55;;;32.70;;
27539;SDS011;15906;52.046;4.724;2023-05-07T06:42:14;41.25;;;32.70;;
27539;SDS011;15906;52.046;4.724;2023-05-07T06:44:39;43.47;;;33.22;;
27539;SDS011;15906;52.046;4.724;2023-05-07T06:47:05;43.50;;;33.97;;
27539;SDS011;15906;52.046;4.724;2023-05-07T06:49:30;44.30;;;33.80;;
27539;SDS011;15906;52.046;4.724;2023-05-07T06:51:56;48.10;;;34.65;;
27539;SDS011;15906;52.046;4.724;2023-05-07T06:54:22;43.13;;;33.92;;
27539;SDS011;15906;52.046;4.724;2023-05-07T06:56:48;46.72;;;34.30;;
27539;SDS011;15906;52.046;4.724;2023-05-07T06:59:13;44.72;;;35.05;;
27539;SDS011;15906;52.046;4.724;2023-05-07T07:01:39;46.85;;;35.17;;
27539;SDS011;15906;52.046;4.724;2023-05-07T07:04:05;45.13;;;34.45;;
27539;SDS011;15906;52.046;4.724;2023-05-07T07:06:30;46.80;;;34.65;;
27539;SDS011;15906;52.046;4.724;2023-05-07T07:08:57;42.88;;;33.40;;
27539;SDS011;15906;52.046;4.724;2023-05-07T07:11:23;46.40;;;33.65;;
27539;SDS011;15906;52.046;4.724;2023-05-07T07:13:48;49.42;;;34.53;;
27539;SDS011;15906;52.046;4.724;2023-05-07T07:16:14;43.97;;;33.05;;
27539;SDS011;15906;52.046;4.724;2023-05-07T07:18:40;42.53;;;32.00;;
27539;SDS011;15906;52.046;4.724;2023-05-07T07:21:05;42.17;;;32.60;;
27539;SDS011;15906;52.046;4.724;2023-05-07T07:23:31;41.75;;;32.00;;
27539;SDS011;15906;52.046;4.724;2023-05-07T07:25:57;39.35;;;31.23;;
27539;SDS011;15906;52.046;4.724;2023-05-07T07:28:23;42.05;;;32.45;;
27539;SDS011;15906;52.046;4.724;2023-05-07T07:30:48;43.17;;;32.47;;
27539;SDS011;15906;52.046;4.724;2023-05-07T07:33:14;45.97;;;35.70;;
27539;SDS011;15906;52.046;4.724;2023-05-07T07:35:40;49.08;;;35.42;;
27539;SDS011;15906;52.046;4.724;2023-05-07T07:38:05;44.20;;;35.97;;
27539;SDS011;15906;52.046;4.724;2023-05-07T07:40:31;50.83;;;36.25;;
27539;SDS011;15906;52.046;4.724;2023-05-07T07:42:59;50.50;;;36.80;;
27539;SDS011;15906;52.046;4.724;2023-05-07T07:45:26;48.83;;;38.17;;
27539;SDS011;15906;52.046;4.724;2023-05-07T07:47:52;44.80;;;35.72;;
27539;SDS011;15906;52.046;4.724;2023-05-07T07:50:17;47.53;;;38.08;;
27539;SDS011;15906;52.046;4.724;2023-05-07T07:52:43;56.33;;;39.67;;
27539;SDS011;15906;52.046;4.724;2023-05-07T07:55:09;46.17;;;37.67;;
27539;SDS011;15906;52.046;4.724;2023-05-07T07:57:35;53.05;;;38.28;;
27539;SDS011;15906;52.046;4.724;2023-05-07T08:00:00;48.05;;;36.55;;
27539;SDS011;15906;52.046;4.724;2023-05-07T08:02:26;45.92;;;36.17;;
27539;SDS011;15906;52.046;4.724;2023-05-07T08:04:52;45.55;;;36.78;;
27539;SDS011;15906;52.046;4.724;2023-05-07T08:07:17;43.70;;;34.95;;
27539;SDS011;15906;52.046;4.724;2023-05-07T08:09:45;39.85;;;31.52;;
27539;SDS011;15906;52.046;4.724;2023-05-07T08:12:11;33.83;;;30.17;;
27539;SDS011;15906;52.046;4.724;2023-05-07T08:14:37;38.08;;;31.83;;
27539;SDS011;15906;52.046;4.724;2023-05-07T08:17:02;34.33;;;28.23;;
27539;SDS011;15906;52.046;4.724;2023-05-07T08:19:28;32.90;;;27.77;;
27539;SDS011;15906;52.046;4.724;2023-05-07T08:21:54;30.25;;;25.58;;
27539;SDS011;15906;52.046;4.724;2023-05-07T08:24:20;31.05;;;24.30;;
27539;SDS011;15906;52.046;4.724;2023-05-07T08:26:46;29.58;;;25.30;;
27539;SDS011;15906;52.046;4.724;2023-05-07T08:29:11;29.55;;;23.90;;
27539;SDS011;15906;52.046;4.724;2023-05-07T08:31:37;29.50;;;23.88;;
27539;SDS011;15906;52.046;4.724;2023-05-07T08:34:04;30.42;;;22.95;;
27539;SDS011;15906;52.046;4.724;2023-05-07T08:36:31;29.35;;;22.33;;
27539;SDS011;15906;52.046;4.724;2023-05-07T08:38:57;25.98;;;22.42;;
27539;SDS011;15906;52.046;4.724;2023-05-07T08:41:22;25.67;;;22.08;;
27539;SDS011;15906;52.046;4.724;2023-05-07T08:43:49;32.65;;;23.08;;
27539;SDS011;15906;52.046;4.724;2023-05-07T08:46:19;29.48;;;23.45;;
27539;SDS011;15906;52.046;4.724;2023-05-07T08:48:48;25.58;;;20.40;;
27539;SDS011;15906;52.046;4.724;2023-05-07T08:51:18;21.92;;;19.60;;
27539;SDS011;15906;52.046;4.724;2023-05-07T08:53:46;23.20;;;19.52;;
27539;SDS011;15906;52.046;4.724;2023-05-07T08:56:15;25.63;;;21.52;;
27539;SDS011;15906;52.046;4.724;2023-05-07T08:58:42;23.85;;;21.35;;
27539;SDS011;15906;52.046;4.724;2023-05-07T09:01:09;29.17;;;21.25;;
27539;SDS011;15906;52.046;4.724;2023-05-07T09:03:38;22.77;;;20.35;;
27539;SDS011;15906;52.046;4.724;2023-05-07T09:06:04;25.70;;;20.58;;
27539;SDS011;15906;52.046;4.724;2023-05-07T09:08:32;25.90;;;21.27;;
27539;SDS011;15906;52.046;4.724;2023-05-07T09:10:58;25.40;;;20.83;;
27539;SDS011;15906;52.046;4.724;2023-05-07T09:13:23;24.63;;;19.60;;
27539;SDS011;15906;52.046;4.724;2023-05-07T09:15:49;23.50;;;18.77;;
27539;SDS011;15906;52.046;4.724;2023-05-07T09:18:14;24.15;;;18.55;;
27539;SDS011;15906;52.046;4.724;2023-05-07T09:20:40;19.65;;;16.77;;
27539;SDS011;15906;52.046;4.724;2023-05-07T09:23:06;19.88;;;16.42;;
27539;SDS011;15906;52.046;4.724;2023-05-07T09:25:34;19.50;;;16.98;;
27539;SDS011;15906;52.046;4.724;2023-05-07T09:28:01;20.35;;;17.52;;
27539;SDS011;15906;52.046;4.724;2023-05-07T09:30:31;21.63;;;18.15;;
27539;SDS011;15906;52.046;4.724;2023-05-07T09:32:58;20.88;;;16.48;;
27539;SDS011;15906;52.046;4.724;2023-05-07T09:35:25;18.75;;;16.20;;
27539;SDS011;15906;52.046;4.724;2023-05-07T09:37:57;20.23;;;15.90;;
27539;SDS011;15906;52.046;4.724;2023-05-07T09:40:25;16.80;;;14.55;;
27539;SDS011;15906;52.046;4.724;2023-05-07T09:42:53;18.70;;;15.82;;
27539;SDS011;15906;52.046;4.724;2023-05-07T09:45:22;19.75;;;14.57;;
27539;SDS011;15906;52.046;4.724;2023-05-07T09:47:55;12.38;;;8.27;;
27539;SDS011;15906;52.046;4.724;2023-05-07T09:51:09;13.20;;;9.23;;
27539;SDS011;15906;52.046;4.724;2023-05-07T09:53:13;11.98;;;9.20;;
27539;SDS011;15906;52.046;4.724;2023-05-07T09:55:40;17.42;;;13.13;;
27539;SDS011;15906;52.046;4.724;2023-05-07T09:58:07;15.35;;;12.30;;
27539;SDS011;15906;52.046;4.724;2023-05-07T10:00:34;15.85;;;12.65;;
27539;SDS011;15906;52.046;4.724;2023-05-07T10:03:00;16.58;;;12.43;;
27539;SDS011;15906;52.046;4.724;2023-05-07T10:05:27;16.83;;;11.70;;
27539;SDS011;15906;52.046;4.724;2023-05-07T10:07:54;14.68;;;10.50;;
27539;SDS011;15906;52.046;4.724;2023-05-07T10:10:21;14.23;;;10.98;;
27539;SDS011;15906;52.046;4.724;2023-05-07T10:12:48;16.25;;;12.10;;
27539;SDS011;15906;52.046;4.724;2023-05-07T10:15:15;14.45;;;11.55;;
27539;SDS011;15906;52.046;4.724;2023-05-07T10:17:42;15.57;;;12.77;;
27539;SDS011;15906;52.046;4.724;2023-05-07T10:20:07;17.50;;;13.60;;
27539;SDS011;15906;52.046;4.724;2023-05-07T10:22:43;15.48;;;12.88;;
27539;SDS011;15906;52.046;4.724;2023-05-07T10:25:22;16.05;;;12.15;;
27539;SDS011;15906;52.046;4.724;2023-05-07T10:27:53;15.00;;;11.98;;
27539;SDS011;15906;52.046;4.724;2023-05-07T10:30:26;15.02;;;12.27;;
27539;SDS011;15906;52.046;4.724;2023-05-07T10:32:55;18.80;;;11.07;;
27539;SDS011;15906;52.046;4.724;2023-05-07T10:35:30;16.80;;;11.55;;
27539;SDS011;15906;52.046;4.724;2023-05-07T10:38:03;15.57;;;11.52;;
27539;SDS011;15906;52.046;4.724;2023-05-07T10:40:30;13.65;;;10.77;;
27539;SDS011;15906;52.046;4.724;2023-05-07T10:42:56;12.55;;;8.73;;
27539;SDS011;15906;52.046;4.724;2023-05-07T10:45:24;12.60;;;9.13;;
27539;SDS011;15906;52.046;4.724;2023-05-07T10:48:05;9.88;;;7.25;;
27539;SDS011;15906;52.046;4.724;2023-05-07T10:50:41;11.68;;;7.07;;
27539;SDS011;15906;52.046;4.724;2023-05-07T10:55:42;14.60;;;10.30;;
27539;SDS011;15906;52.046;4.724;2023-05-07T11:00:47;12.75;;;8.60;;
27539;SDS011;15906;52.046;4.724;2023-05-07T11:03:14;13.50;;;8.40;;
27539;SDS011;15906;52.046;4.724;2023-05-07T11:05:40;9.13;;;6.85;;
27539;SDS011;15906;52.046;4.724;2023-05-07T11:08:07;11.98;;;7.57;;
27539;SDS011;15906;52.046;4.724;2023-05-07T11:10:53;10.60;;;6.70;;
27539;SDS011;15906;52.046;4.724;2023-05-07T11:16:24;14.00;;;8.52;;
27539;SDS011;15906;52.046;4.724;2023-05-07T11:18:53;10.32;;;7.43;;
27539;SDS011;15906;52.046;4.724;2023-05-07T11:21:38;12.30;;;8.05;;
27539;SDS011;15906;52.046;4.724;2023-05-07T11:24:08;10.88;;;8.52;;
27539;SDS011;15906;52.046;4.724;2023-05-07T11:27:08;11.18;;;8.88;;
27539;SDS011;15906;52.046;4.724;2023-05-07T11:29:27;11.90;;;9.05;;
27539;SDS011;15906;52.046;4.724;2023-05-07T11:31:54;14.35;;;11.00;;
27539;SDS011;15906;52.046;4.724;2023-05-07T11:34:21;14.07;;;10.70;;
27539;SDS011;15906;52.046;4.724;2023-05-07T11:36:47;17.63;;;10.80;;
27539;SDS011;15906;52.046;4.724;2023-05-07T11:39:27;12.13;;;10.02;;
27539;SDS011;15906;52.046;4.724;2023-05-07T11:41:58;15.70;;;9.35;;
27539;SDS011;15906;52.046;4.724;2023-05-07T11:44:25;11.35;;;9.25;;
27539;SDS011;15906;52.046;4.724;2023-05-07T11:47:03;12.48;;;9.50;;
27539;SDS011;15906;52.046;4.724;2023-05-07T11:49:29;14.15;;;8.15;;
27539;SDS011;15906;52.046;4.724;2023-05-07T11:51:55;11.77;;;8.15;;
27539;SDS011;15906;52.046;4.724;2023-05-07T11:54:21;9.88;;;7.43;;
27539;SDS011;15906;52.046;4.724;2023-05-07T11:56:47;8.85;;;6.50;;
27539;SDS011;15906;52.046;4.724;2023-05-07T11:59:16;9.88;;;6.95;;
27539;SDS011;15906;52.046;4.724;2023-05-07T12:01:44;12.00;;;6.93;;
27539;SDS011;15906;52.046;4.724;2023-05-07T12:04:10;9.80;;;6.50;;
27539;SDS011;15906;52.046;4.724;2023-05-07T12:06:36;11.05;;;7.25;;
27539;SDS011;15906;52.046;4.724;2023-05-07T12:09:02;11.55;;;7.70;;
27539;SDS011;15906;52.046;4.724;2023-05-07T12:11:29;12.05;;;7.68;;
27539;SDS011;15906;52.046;4.724;2023-05-07T12:13:54;9.10;;;7.28;;
27539;SDS011;15906;52.046;4.724;2023-05-07T12:16:20;13.07;;;8.23;;
27539;SDS011;15906;52.046;4.724;2023-05-07T12:18:46;12.07;;;7.85;;
27539;SDS011;15906;52.046;4.724;2023-05-07T12:21:12;10.82;;;8.32;;
27539;SDS011;15906;52.046;4.724;2023-05-07T12:23:38;10.23;;;8.00;;
27539;SDS011;15906;52.046;4.724;2023-05-07T12:26:04;11.15;;;8.85;;
27539;SDS011;15906;52.046;4.724;2023-05-07T12:28:30;12.98;;;9.57;;
27539;SDS011;15906;52.046;4.724;2023-05-07T12:31:00;11.10;;;8.73;;
27539;SDS011;15906;52.046;4.724;2023-05-07T12:33:26;11.95;;;10.32;;
27539;SDS011;15906;52.046;4.724;2023-05-07T12:35:54;11.15;;;10.05;;
27539;SDS011;15906;52.046;4.724;2023-05-07T12:38:21;12.07;;;9.65;;
27539;SDS011;15906;52.046;4.724;2023-05-07T12:40:47;17.52;;;11.85;;
27539;SDS011;15906;52.046;4.724;2023-05-07T12:43:24;14.05;;;12.60;;
27539;SDS011;15906;52.046;4.724;2023-05-07T12:45:54;17.73;;;13.10;;
27539;SDS011;15906;52.046;4.724;2023-05-07T12:48:23;15.05;;;12.38;;
27539;SDS011;15906;52.046;4.724;2023-05-07T12:50:59;18.10;;;13.82;;
27539;SDS011;15906;52.046;4.724;2023-05-07T12:53:25;14.05;;;12.13;;
27539;SDS011;15906;52.046;4.724;2023-05-07T12:55:56;17.55;;;13.77;;
27539;SDS011;15906;52.046;4.724;2023-05-07T13:00:50;16.88;;;13.85;;
27539;SDS011;15906;52.046;4.724;2023-05-07T13:06:08;16.20;;;13.82;;
27539;SDS011;15906;52.046;4.724;2023-05-07T13:08:35;15.77;;;13.88;;
27539;SDS011;15906;52.046;4.724;2023-05-07T13:11:06;14.43;;;13.02;;
27539;SDS011;15906;52.046;4.724;2023-05-07T13:13:36;16.88;;;14.80;;
27539;SDS011;15906;52.046;4.724;2023-05-07T13:16:03;18.45;;;14.40;;
27539;SDS011;15906;52.046;4.724;2023-05-07T13:18:30;16.02;;;13.23;;
27539;SDS011;15906;52.046;4.724;2023-05-07T13:20:56;16.55;;;14.25;;
27539;SDS011;15906;52.046;4.724;2023-05-07T13:23:22;19.45;;;15.50;;
27539;SDS011;15906;52.046;4.724;2023-05-07T13:25:48;22.50;;;15.85;;
27539;SDS011;15906;52.046;4.724;2023-05-07T13:28:14;28.98;;;14.23;;
27539;SDS011;15906;52.046;4.724;2023-05-07T13:30:39;18.13;;;11.93;;
27539;SDS011;15906;52.046;4.724;2023-05-07T13:33:05;17.58;;;9.40;;
27539;SDS011;15906;52.046;4.724;2023-05-07T13:35:32;17.40;;;9.50;;
27539;SDS011;15906;52.046;4.724;2023-05-07T13:37:58;14.95;;;8.30;;
27539;SDS011;15906;52.046;4.724;2023-05-07T13:40:24;17.42;;;9.77;;
27539;SDS011;15906;52.046;4.724;2023-05-07T13:42:49;13.18;;;10.38;;
27539;SDS011;15906;52.046;4.724;2023-05-07T13:45:17;12.20;;;9.25;;
27539;SDS011;15906;52.046;4.724;2023-05-07T13:47:43;14.35;;;10.43;;
27539;SDS011;15906;52.046;4.724;2023-05-07T13:50:10;10.85;;;7.90;;
27539;SDS011;15906;52.046;4.724;2023-05-07T13:52:40;8.85;;;5.93;;
27539;SDS011;15906;52.046;4.724;2023-05-07T13:55:08;10.23;;;6.85;;
27539;SDS011;15906;52.046;4.724;2023-05-07T13:57:34;8.80;;;6.25;;
27539;SDS011;15906;52.046;4.724;2023-05-07T13:59:59;7.93;;;7.07;;
27539;SDS011;15906;52.046;4.724;2023-05-07T14:02:25;9.25;;;6.88;;
27539;SDS011;15906;52.046;4.724;2023-05-07T14:04:50;24.92;;;9.75;;
27539;SDS011;15906;52.046;4.724;2023-05-07T14:07:16;19.20;;;12.50;;
27539;SDS011;15906;52.046;4.724;2023-05-07T14:09:42;28.42;;;12.75;;
27539;SDS011;15906;52.046;4.724;2023-05-07T14:12:07;19.20;;;11.38;;
27539;SDS011;15906;52.046;4.724;2023-05-07T14:14:33;21.95;;;13.02;;
27539;SDS011;15906;52.046;4.724;2023-05-07T14:16:59;13.85;;;9.98;;
27539;SDS011;15906;52.046;4.724;2023-05-07T14:19:25;8.95;;;7.85;;
27539;SDS011;15906;52.046;4.724;2023-05-07T14:21:51;11.40;;;6.20;;
27539;SDS011;15906;52.046;4.724;2023-05-07T14:24:16;10.05;;;5.03;;
27539;SDS011;15906;52.046;4.724;2023-05-07T14:26:42;10.75;;;4.63;;
27539;SDS011;15906;52.046;4.724;2023-05-07T14:29:08;8.40;;;5.13;;
27539;SDS011;15906;52.046;4.724;2023-05-07T14:31:33;7.30;;;5.28;;
27539;SDS011;15906;52.046;4.724;2023-05-07T14:33:59;9.23;;;6.15;;